sensor_id;sensor_type;location;lat;lon;timestamp;pressure;altitude;pressure_sealevel;temperature
24714;BMP280;12820;51.580;5.010;2023-04-24T00:01:54;99957.84;;;12.85
24714;BMP280;12820;51.580;5.010;2023-04-24T00:06:57;99961.25;;;12.84
24714;BMP280;12820;51.580;5.010;2023-04-24T00:12:02;99965.41;;;12.85
24714;BMP280;12820;51.580;5.010;2023-04-24T00:17:06;99966.22;;;12.86
24714;BMP280;12820;51.580;5.010;2023-04-24T00:22:08;99964.53;;;12.86
24714;BMP280;12820;51.580;5.010;2023-04-24T00:27:10;99962.88;;;12.85
24714;BMP280;12820;51.580;5.010;2023-04-24T00:32:13;99969.56;;;12.86
24714;BMP280;12820;51.580;5.010;2023-04-24T00:37:15;99963.66;;;12.87
24714;BMP280;12820;51.580;5.010;2023-04-24T00:42:19;99969.53;;;12.88
24714;BMP280;12820;51.580;5.010;2023-04-24T00:47:21;99961.97;;;12.88
24714;BMP280;12820;51.580;5.010;2023-04-24T00:52:23;99961.97;;;12.88
24714;BMP280;12820;51.580;5.010;2023-04-24T00:57:26;99972.09;;;12.86
24714;BMP280;12820;51.580;5.010;2023-04-24T01:02:28;99974.72;;;12.83
24714;BMP280;12820;51.580;5.010;2023-04-24T01:07:31;99973.13;;;12.81
24714;BMP280;12820;51.580;5.010;2023-04-24T01:12:35;99965.69;;;12.78
24714;BMP280;12820;51.580;5.010;2023-04-24T01:17:37;99968.25;;;12.77
24714;BMP280;12820;51.580;5.010;2023-04-24T01:22:40;99967.50;;;12.75
24714;BMP280;12820;51.580;5.010;2023-04-24T01:27:43;99970.06;;;12.73
24714;BMP280;12820;51.580;5.010;2023-04-24T01:32:46;99971.03;;;12.71
24714;BMP280;12820;51.580;5.010;2023-04-24T01:37:48;99979.50;;;12.68
24714;BMP280;12820;51.580;5.010;2023-04-24T01:42:51;99980.44;;;12.66
24714;BMP280;12820;51.580;5.010;2023-04-24T01:47:53;99981.41;;;12.62
24714;BMP280;12820;51.580;5.010;2023-04-24T01:52:55;99985.66;;;12.60
24714;BMP280;12820;51.580;5.010;2023-04-24T01:57:59;99984.13;;;12.56
24714;BMP280;12820;51.580;5.010;2023-04-24T02:03:01;99985.97;;;12.51
24714;BMP280;12820;51.580;5.010;2023-04-24T02:08:04;99986.94;;;12.47
24714;BMP280;12820;51.580;5.010;2023-04-24T02:13:06;99992.13;;;12.43
24714;BMP280;12820;51.580;5.010;2023-04-24T02:18:08;99991.44;;;12.40
24714;BMP280;12820;51.580;5.010;2023-04-24T02:23:10;99988.97;;;12.38
24714;BMP280;12820;51.580;5.010;2023-04-24T02:28:13;99989.91;;;12.36
24714;BMP280;12820;51.580;5.010;2023-04-24T02:33:15;99990.00;;;12.33
24714;BMP280;12820;51.580;5.010;2023-04-24T02:38:17;99991.75;;;12.31
24714;BMP280;12820;51.580;5.010;2023-04-24T02:43:20;99989.28;;;12.29
24714;BMP280;12820;51.580;5.010;2023-04-24T02:48:22;99983.47;;;12.27
24714;BMP280;12820;51.580;5.010;2023-04-24T02:53:24;99977.66;;;12.25
24714;BMP280;12820;51.580;5.010;2023-04-24T02:58:26;99979.44;;;12.24
24714;BMP280;12820;51.580;5.010;2023-04-24T03:03:28;99965.34;;;12.18
24714;BMP280;12820;51.580;5.010;2023-04-24T03:08:34;99965.50;;;12.14
24714;BMP280;12820;51.580;5.010;2023-04-24T03:13:36;99964.75;;;12.10
24714;BMP280;12820;51.580;5.010;2023-04-24T03:18:38;99965.63;;;12.09
24714;BMP280;12820;51.580;5.010;2023-04-24T03:23:42;99968.28;;;12.05
24714;BMP280;12820;51.580;5.010;2023-04-24T03:28:44;99964.16;;;12.04
24714;BMP280;12820;51.580;5.010;2023-04-24T03:33:46;99960.91;;;12.01
24714;BMP280;12820;51.580;5.010;2023-04-24T03:38:48;99956.09;;;11.95
24714;BMP280;12820;51.580;5.010;2023-04-24T03:44:00;99958.72;;;11.90
24714;BMP280;12820;51.580;5.010;2023-04-24T03:49:03;99963.03;;;11.87
24714;BMP280;12820;51.580;5.010;2023-04-24T03:54:09;99965.69;;;11.84
24714;BMP280;12820;51.580;5.010;2023-04-24T03:59:14;99957.34;;;11.82
24714;BMP280;12820;51.580;5.010;2023-04-24T04:04:20;99963.25;;;11.81
24714;BMP280;12820;51.580;5.010;2023-04-24T04:09:23;99958.19;;;11.81
24714;BMP280;12820;51.580;5.010;2023-04-24T04:14:25;99971.63;;;11.82
24714;BMP280;12820;51.580;5.010;2023-04-24T04:19:27;99985.84;;;11.83
24714;BMP280;12820;51.580;5.010;2023-04-24T04:24:30;99987.47;;;11.85
24714;BMP280;12820;51.580;5.010;2023-04-24T04:29:33;99995.03;;;11.85
24714;BMP280;12820;51.580;5.010;2023-04-24T04:34:39;100005.09;;;11.85
24714;BMP280;12820;51.580;5.010;2023-04-24T04:39:45;100005.09;;;11.85
24714;BMP280;12820;51.580;5.010;2023-04-24T04:44:53;100007.59;;;11.85
24714;BMP280;12820;51.580;5.010;2023-04-24T04:50:04;100011.00;;;11.84
24714;BMP280;12820;51.580;5.010;2023-04-24T04:55:07;100016.09;;;11.81
24714;BMP280;12820;51.580;5.010;2023-04-24T05:00:32;100029.66;;;11.77
24714;BMP280;12820;51.580;5.010;2023-04-24T05:05:45;100046.56;;;11.74
24714;BMP280;12820;51.580;5.010;2023-04-24T05:10:50;100045.72;;;11.73
24714;BMP280;12820;51.580;5.010;2023-04-24T05:15:52;100059.28;;;11.70
24714;BMP280;12820;51.580;5.010;2023-04-24T05:20:55;100063.59;;;11.66
24714;BMP280;12820;51.580;5.010;2023-04-24T05:25:59;100062.84;;;11.63
24714;BMP280;12820;51.580;5.010;2023-04-24T05:31:02;100073.84;;;11.60
24714;BMP280;12820;51.580;5.010;2023-04-24T05:36:06;100089.84;;;11.58
24714;BMP280;12820;51.580;5.010;2023-04-24T05:41:08;100109.13;;;11.57
24714;BMP280;12820;51.580;5.010;2023-04-24T05:46:11;100119.28;;;11.56
24714;BMP280;12820;51.580;5.010;2023-04-24T05:51:13;100127.69;;;11.55
24714;BMP280;12820;51.580;5.010;2023-04-24T05:56:16;100147.09;;;11.52
24714;BMP280;12820;51.580;5.010;2023-04-24T06:01:18;100162.25;;;11.49
24714;BMP280;12820;51.580;5.010;2023-04-24T06:06:28;100179.03;;;11.48
24714;BMP280;12820;51.580;5.010;2023-04-24T06:11:31;100215.19;;;11.46
24714;BMP280;12820;51.580;5.010;2023-04-24T06:16:34;100213.53;;;11.45
24714;BMP280;12820;51.580;5.010;2023-04-24T06:21:44;100232.00;;;11.44
24714;BMP280;12820;51.580;5.010;2023-04-24T06:26:46;100252.13;;;11.44
24714;BMP280;12820;51.580;5.010;2023-04-24T06:31:48;100257.16;;;11.44
24714;BMP280;12820;51.580;5.010;2023-04-24T06:36:50;100284.84;;;11.44
24714;BMP280;12820;51.580;5.010;2023-04-24T06:41:53;100299.91;;;11.45
24714;BMP280;12820;51.580;5.010;2023-04-24T06:46:55;100307.41;;;11.47
24714;BMP280;12820;51.580;5.010;2023-04-24T06:51:57;100313.19;;;11.50
24714;BMP280;12820;51.580;5.010;2023-04-24T06:57:00;100334.97;;;11.51
24714;BMP280;12820;51.580;5.010;2023-04-24T07:02:05;100354.25;;;11.52
24714;BMP280;12820;51.580;5.010;2023-04-24T07:07:08;100370.00;;;11.58
24714;BMP280;12820;51.580;5.010;2023-04-24T07:12:11;100380.88;;;11.60
24714;BMP280;12820;51.580;5.010;2023-04-24T07:17:14;100403.44;;;11.63
24714;BMP280;12820;51.580;5.010;2023-04-24T07:22:17;100404.19;;;11.67
24714;BMP280;12820;51.580;5.010;2023-04-24T07:27:19;100406.63;;;11.70
24714;BMP280;12820;51.580;5.010;2023-04-24T07:32:21;100421.75;;;11.70
24714;BMP280;12820;51.580;5.010;2023-04-24T07:37:23;100421.66;;;11.72
24714;BMP280;12820;51.580;5.010;2023-04-24T07:42:27;100444.25;;;11.75
24714;BMP280;12820;51.580;5.010;2023-04-24T07:47:30;100453.41;;;11.78
24714;BMP280;12820;51.580;5.010;2023-04-24T07:52:32;100447.59;;;11.76
24714;BMP280;12820;51.580;5.010;2023-04-24T07:57:34;100472.78;;;11.76
24714;BMP280;12820;51.580;5.010;2023-04-24T08:02:37;100487.69;;;11.82
24714;BMP280;12820;51.580;5.010;2023-04-24T08:07:39;100489.22;;;11.89
24714;BMP280;12820;51.580;5.010;2023-04-24T08:12:44;100502.38;;;11.99
24714;BMP280;12820;51.580;5.010;2023-04-24T08:17:46;100504.56;;;12.12
24714;BMP280;12820;51.580;5.010;2023-04-24T08:22:48;100515.66;;;12.37
24714;BMP280;12820;51.580;5.010;2023-04-24T08:27:51;100540.22;;;12.60
24714;BMP280;12820;51.580;5.010;2023-04-24T08:32:53;100550.09;;;12.69
24714;BMP280;12820;51.580;5.010;2023-04-24T08:37:55;100561.88;;;12.68
24714;BMP280;12820;51.580;5.010;2023-04-24T08:42:59;100568.59;;;12.68
24714;BMP280;12820;51.580;5.010;2023-04-24T08:48:02;100575.97;;;12.75
24714;BMP280;12820;51.580;5.010;2023-04-24T08:53:04;100583.03;;;12.93
24714;BMP280;12820;51.580;5.010;2023-04-24T08:58:07;100586.63;;;13.14
24714;BMP280;12820;51.580;5.010;2023-04-24T09:03:09;100586.69;;;13.13
24714;BMP280;12820;51.580;5.010;2023-04-24T09:08:13;100605.63;;;12.97
24714;BMP280;12820;51.580;5.010;2023-04-24T09:13:15;100640.34;;;12.88
24714;BMP280;12820;51.580;5.010;2023-04-24T09:18:18;100633.75;;;12.82
24714;BMP280;12820;51.580;5.010;2023-04-24T09:23:20;100633.38;;;12.97
24714;BMP280;12820;51.580;5.010;2023-04-24T09:28:34;100639.97;;;13.31
24714;BMP280;12820;51.580;5.010;2023-04-24T09:33:37;100649.38;;;13.84
24714;BMP280;12820;51.580;5.010;2023-04-24T09:38:39;100646.13;;;14.56
24714;BMP280;12820;51.580;5.010;2023-04-24T09:43:41;100653.84;;;15.25
24714;BMP280;12820;51.580;5.010;2023-04-24T09:48:43;100659.09;;;15.43
24714;BMP280;12820;51.580;5.010;2023-04-24T09:53:46;100682.16;;;15.13
24714;BMP280;12820;51.580;5.010;2023-04-24T09:59:04;100695.13;;;14.79
24714;BMP280;12820;51.580;5.010;2023-04-24T10:04:06;100707.09;;;14.49
24714;BMP280;12820;51.580;5.010;2023-04-24T10:09:08;100709.31;;;14.32
24714;BMP280;12820;51.580;5.010;2023-04-24T10:14:15;100699.00;;;14.38
24714;BMP280;12820;51.580;5.010;2023-04-24T10:19:17;100706.97;;;14.52
24714;BMP280;12820;51.580;5.010;2023-04-24T10:24:22;100708.16;;;14.67
24714;BMP280;12820;51.580;5.010;2023-04-24T10:29:24;100704.53;;;14.99
24714;BMP280;12820;51.580;5.010;2023-04-24T10:34:27;100716.00;;;15.33
24714;BMP280;12820;51.580;5.010;2023-04-24T10:39:30;100708.03;;;15.43
24714;BMP280;12820;51.580;5.010;2023-04-24T10:44:36;100722.00;;;15.30
24714;BMP280;12820;51.580;5.010;2023-04-24T10:49:38;100743.09;;;15.07
24714;BMP280;12820;51.580;5.010;2023-04-24T10:59:45;100751.63;;;14.53
24714;BMP280;12820;51.580;5.010;2023-04-24T11:04:50;100750.03;;;14.50
24714;BMP280;12820;51.580;5.010;2023-04-24T11:09:58;100751.44;;;14.58
24714;BMP280;12820;51.580;5.010;2023-04-24T11:15:01;100760.09;;;14.52
24714;BMP280;12820;51.580;5.010;2023-04-24T11:20:08;100759.31;;;14.75
24714;BMP280;12820;51.580;5.010;2023-04-24T11:25:30;100763.38;;;15.06
24714;BMP280;12820;51.580;5.010;2023-04-24T11:30:33;100776.78;;;15.33
24714;BMP280;12820;51.580;5.010;2023-04-24T11:35:40;100783.38;;;15.61
24714;BMP280;12820;51.580;5.010;2023-04-24T11:40:42;100787.03;;;15.76
24714;BMP280;12820;51.580;5.010;2023-04-24T11:45:48;100789.38;;;16.04
24714;BMP280;12820;51.580;5.010;2023-04-24T11:50:50;100794.25;;;16.10
24714;BMP280;12820;51.580;5.010;2023-04-24T11:55:53;100813.53;;;16.14
24714;BMP280;12820;51.580;5.010;2023-04-24T12:00:58;100818.50;;;16.17
24714;BMP280;12820;51.580;5.010;2023-04-24T12:06:08;100812.59;;;16.17
24714;BMP280;12820;51.580;5.010;2023-04-24T12:11:10;100821.22;;;16.34
24714;BMP280;12820;51.580;5.010;2023-04-24T12:16:13;100830.81;;;16.48
24714;BMP280;12820;51.580;5.010;2023-04-24T12:21:18;100827.09;;;17.19
24714;BMP280;12820;51.580;5.010;2023-04-24T12:26:23;100818.94;;;18.45
24714;BMP280;12820;51.580;5.010;2023-04-24T12:31:26;100839.94;;;18.84
24714;BMP280;12820;51.580;5.010;2023-04-24T12:36:31;100845.13;;;18.47
24714;BMP280;12820;51.580;5.010;2023-04-24T12:41:33;100859.66;;;17.89
24714;BMP280;12820;51.580;5.010;2023-04-24T12:46:35;100852.59;;;17.96
24714;BMP280;12820;51.580;5.010;2023-04-24T12:51:37;100849.47;;;18.45
24714;BMP280;12820;51.580;5.010;2023-04-24T12:56:39;100845.56;;;19.75
24714;BMP280;12820;51.580;5.010;2023-04-24T13:01:41;100847.63;;;19.68
24714;BMP280;12820;51.580;5.010;2023-04-24T13:06:43;100861.75;;;19.90
24714;BMP280;12820;51.580;5.010;2023-04-24T13:11:45;100859.38;;;19.54
24714;BMP280;12820;51.580;5.010;2023-04-24T13:16:47;100874.50;;;18.89
24714;BMP280;12820;51.580;5.010;2023-04-24T13:21:50;100888.28;;;18.50
24714;BMP280;12820;51.580;5.010;2023-04-24T13:26:52;100882.63;;;18.79
24714;BMP280;12820;51.580;5.010;2023-04-24T13:31:55;100907.25;;;18.43
24714;BMP280;12820;51.580;5.010;2023-04-24T13:36:58;100895.84;;;17.75
24714;BMP280;12820;51.580;5.010;2023-04-24T13:42:00;100899.78;;;17.62
24714;BMP280;12820;51.580;5.010;2023-04-24T13:47:05;100899.78;;;17.83
24714;BMP280;12820;51.580;5.010;2023-04-24T13:52:08;100902.75;;;17.92
24714;BMP280;12820;51.580;5.010;2023-04-24T13:57:13;100899.31;;;17.93
24714;BMP280;12820;51.580;5.010;2023-04-24T14:02:16;100880.91;;;19.65
24714;BMP280;12820;51.580;5.010;2023-04-24T14:07:18;100866.19;;;22.49
24714;BMP280;12820;51.580;5.010;2023-04-24T14:12:20;100865.44;;;23.14
24714;BMP280;12820;51.580;5.010;2023-04-24T14:17:23;100866.22;;;22.63
24714;BMP280;12820;51.580;5.010;2023-04-24T14:22:25;100854.78;;;25.57
24714;BMP280;12820;51.580;5.010;2023-04-24T14:27:27;100854.78;;;26.02
24714;BMP280;12820;51.580;5.010;2023-04-24T14:32:29;100851.50;;;26.64
24714;BMP280;12820;51.580;5.010;2023-04-24T14:37:31;100850.31;;;27.80
24714;BMP280;12820;51.580;5.010;2023-04-24T14:42:34;100856.34;;;27.49
24714;BMP280;12820;51.580;5.010;2023-04-24T14:47:36;100870.00;;;27.21
24714;BMP280;12820;51.580;5.010;2023-04-24T14:52:39;100861.94;;;27.65
24714;BMP280;12820;51.580;5.010;2023-04-24T14:57:42;100860.97;;;27.86
24714;BMP280;12820;51.580;5.010;2023-04-24T15:02:44;100870.66;;;27.03
24714;BMP280;12820;51.580;5.010;2023-04-24T15:07:46;100876.13;;;25.81
24714;BMP280;12820;51.580;5.010;2023-04-24T15:12:49;100887.53;;;24.99
24714;BMP280;12820;51.580;5.010;2023-04-24T15:17:51;100875.38;;;24.19
24714;BMP280;12820;51.580;5.010;2023-04-24T15:22:53;100870.34;;;24.52
24714;BMP280;12820;51.580;5.010;2023-04-24T15:27:55;100867.38;;;25.16
24714;BMP280;12820;51.580;5.010;2023-04-24T15:32:57;100870.94;;;24.80
24714;BMP280;12820;51.580;5.010;2023-04-24T15:38:00;100885.44;;;23.97
24714;BMP280;12820;51.580;5.010;2023-04-24T15:43:02;100890.94;;;23.15
24714;BMP280;12820;51.580;5.010;2023-04-24T15:48:05;100887.00;;;22.59
24714;BMP280;12820;51.580;5.010;2023-04-24T15:53:07;100900.34;;;22.09
24714;BMP280;12820;51.580;5.010;2023-04-24T15:58:09;100897.16;;;22.19
24714;BMP280;12820;51.580;5.010;2023-04-24T16:03:12;100897.72;;;22.38
24714;BMP280;12820;51.580;5.010;2023-04-24T16:08:15;100893.25;;;22.94
24714;BMP280;12820;51.580;5.010;2023-04-24T16:13:17;100898.44;;;23.32
24714;BMP280;12820;51.580;5.010;2023-04-24T16:18:20;100895.13;;;23.30
24714;BMP280;12820;51.580;5.010;2023-04-24T16:23:22;100904.06;;;22.85
24714;BMP280;12820;51.580;5.010;2023-04-24T16:28:24;100903.81;;;22.35
24714;BMP280;12820;51.580;5.010;2023-04-24T16:33:28;100914.00;;;22.23
24714;BMP280;12820;51.580;5.010;2023-04-24T16:38:32;100905.28;;;22.12
24714;BMP280;12820;51.580;5.010;2023-04-24T16:43:34;100912.13;;;22.25
24714;BMP280;12820;51.580;5.010;2023-04-24T16:48:36;100917.28;;;22.39
24714;BMP280;12820;51.580;5.010;2023-04-24T16:53:38;100921.47;;;22.40
24714;BMP280;12820;51.580;5.010;2023-04-24T16:58:40;100914.53;;;22.14
24714;BMP280;12820;51.580;5.010;2023-04-24T17:03:43;100921.19;;;21.74
24714;BMP280;12820;51.580;5.010;2023-04-24T17:08:45;100916.28;;;21.28
24714;BMP280;12820;51.580;5.010;2023-04-24T17:13:47;100908.72;;;21.11
24714;BMP280;12820;51.580;5.010;2023-04-24T17:18:49;100929.97;;;20.97
24714;BMP280;12820;51.580;5.010;2023-04-24T17:23:52;100926.03;;;20.76
24714;BMP280;12820;51.580;5.010;2023-04-24T17:28:54;100930.78;;;20.67
24714;BMP280;12820;51.580;5.010;2023-04-24T17:33:57;100929.59;;;20.42
24714;BMP280;12820;51.580;5.010;2023-04-24T17:39:00;100929.28;;;20.00
24714;BMP280;12820;51.580;5.010;2023-04-24T17:44:02;100933.44;;;19.51
24714;BMP280;12820;51.580;5.010;2023-04-24T17:49:04;100933.16;;;19.06
24714;BMP280;12820;51.580;5.010;2023-04-24T17:54:06;100945.44;;;18.61
24714;BMP280;12820;51.580;5.010;2023-04-24T17:59:09;100940.63;;;18.17
24714;BMP280;12820;51.580;5.010;2023-04-24T18:04:11;100944.75;;;17.81
24714;BMP280;12820;51.580;5.010;2023-04-24T18:09:13;100940.44;;;17.42
24714;BMP280;12820;51.580;5.010;2023-04-24T18:14:19;100958.75;;;17.08
24714;BMP280;12820;51.580;5.010;2023-04-24T18:19:21;100957.47;;;16.75
24714;BMP280;12820;51.580;5.010;2023-04-24T18:24:23;100967.09;;;16.45
24714;BMP280;12820;51.580;5.010;2023-04-24T18:29:26;100965.72;;;16.13
24714;BMP280;12820;51.580;5.010;2023-04-24T18:34:28;100967.69;;;15.80
24714;BMP280;12820;51.580;5.010;2023-04-24T18:39:31;100972.81;;;15.53
24714;BMP280;12820;51.580;5.010;2023-04-24T18:44:34;100986.25;;;15.29
24714;BMP280;12820;51.580;5.010;2023-04-24T18:49:36;100994.56;;;15.06
24714;BMP280;12820;51.580;5.010;2023-04-24T18:54:38;100996.00;;;14.85
24714;BMP280;12820;51.580;5.010;2023-04-24T18:59:41;101000.81;;;14.65
24714;BMP280;12820;51.580;5.010;2023-04-24T19:04:44;101001.31;;;14.48
24714;BMP280;12820;51.580;5.010;2023-04-24T19:09:46;101007.75;;;14.28
24714;BMP280;12820;51.580;5.010;2023-04-24T19:14:48;101016.63;;;14.12
24714;BMP280;12820;51.580;5.010;2023-04-24T19:19:50;101026.19;;;14.00
24714;BMP280;12820;51.580;5.010;2023-04-24T19:24:53;101037.47;;;13.87
24714;BMP280;12820;51.580;5.010;2023-04-24T19:29:55;101037.69;;;13.77
24714;BMP280;12820;51.580;5.010;2023-04-24T19:34:57;101037.97;;;13.66
24714;BMP280;12820;51.580;5.010;2023-04-24T19:40:00;101039.06;;;13.54
24714;BMP280;12820;51.580;5.010;2023-04-24T19:45:02;101043.59;;;13.41
24714;BMP280;12820;51.580;5.010;2023-04-24T19:50:05;101040.50;;;13.29
24714;BMP280;12820;51.580;5.010;2023-04-24T19:55:08;101053.38;;;13.18
24714;BMP280;12820;51.580;5.010;2023-04-24T20:00:11;101043.53;;;13.05
24714;BMP280;12820;51.580;5.010;2023-04-24T20:05:13;101052.22;;;12.94
24714;BMP280;12820;51.580;5.010;2023-04-24T20:10:16;101050.72;;;12.84
24714;BMP280;12820;51.580;5.010;2023-04-24T20:15:18;101056.84;;;12.73
24714;BMP280;12820;51.580;5.010;2023-04-24T20:20:20;101052.81;;;12.63
24714;BMP280;12820;51.580;5.010;2023-04-24T20:25:23;101059.69;;;12.54
24714;BMP280;12820;51.580;5.010;2023-04-24T20:30:25;101053.16;;;12.44
24714;BMP280;12820;51.580;5.010;2023-04-24T20:35:27;101048.25;;;12.37
24714;BMP280;12820;51.580;5.010;2023-04-24T20:40:29;101061.84;;;12.29
24714;BMP280;12820;51.580;5.010;2023-04-24T20:45:33;101055.28;;;12.19
24714;BMP280;12820;51.580;5.010;2023-04-24T20:50:35;101063.00;;;12.10
24714;BMP280;12820;51.580;5.010;2023-04-24T20:55:42;101062.31;;;12.03
24714;BMP280;12820;51.580;5.010;2023-04-24T21:00:45;101063.31;;;11.94
24714;BMP280;12820;51.580;5.010;2023-04-24T21:05:48;101061.72;;;11.86
24714;BMP280;12820;51.580;5.010;2023-04-24T21:10:50;101055.16;;;11.79
24714;BMP280;12820;51.580;5.010;2023-04-24T21:15:52;101041.81;;;11.72
24714;BMP280;12820;51.580;5.010;2023-04-24T21:20:54;101045.28;;;11.66
24714;BMP280;12820;51.580;5.010;2023-04-24T21:25:57;101045.38;;;11.60
24714;BMP280;12820;51.580;5.010;2023-04-24T21:31:00;101044.69;;;11.51
24714;BMP280;12820;51.580;5.010;2023-04-24T21:36:02;101043.91;;;11.46
24714;BMP280;12820;51.580;5.010;2023-04-24T21:41:04;101049.84;;;11.42
24714;BMP280;12820;51.580;5.010;2023-04-24T21:46:06;101044.84;;;11.39
24714;BMP280;12820;51.580;5.010;2023-04-24T21:51:08;101060.78;;;11.38
24714;BMP280;12820;51.580;5.010;2023-04-24T21:56:10;101058.31;;;11.36
24714;BMP280;12820;51.580;5.010;2023-04-24T22:01:12;101060.84;;;11.34
24714;BMP280;12820;51.580;5.010;2023-04-24T22:06:16;101054.97;;;11.37
24714;BMP280;12820;51.580;5.010;2023-04-24T22:11:18;101060.78;;;11.38
24714;BMP280;12820;51.580;5.010;2023-04-24T22:16:28;101056.56;;;11.40
24714;BMP280;12820;51.580;5.010;2023-04-24T22:21:32;101055.75;;;11.40
24714;BMP280;12820;51.580;5.010;2023-04-24T22:26:34;101062.44;;;11.39
24714;BMP280;12820;51.580;5.010;2023-04-24T22:31:36;101061.66;;;11.37
24714;BMP280;12820;51.580;5.010;2023-04-24T22:36:39;101065.88;;;11.36
24714;BMP280;12820;51.580;5.010;2023-04-24T22:41:41;101068.38;;;11.36
24714;BMP280;12820;51.580;5.010;2023-04-24T22:46:44;101070.06;;;11.37
24714;BMP280;12820;51.580;5.010;2023-04-24T22:51:46;101070.03;;;11.38
24714;BMP280;12820;51.580;5.010;2023-04-24T22:56:48;101072.56;;;11.37
24714;BMP280;12820;51.580;5.010;2023-04-24T23:01:51;101075.94;;;11.37
24714;BMP280;12820;51.580;5.010;2023-04-24T23:06:53;101077.59;;;11.37
24714;BMP280;12820;51.580;5.010;2023-04-24T23:11:55;101071.69;;;11.39
24714;BMP280;12820;51.580;5.010;2023-04-24T23:16:58;101083.41;;;11.41
24714;BMP280;12820;51.580;5.010;2023-04-24T23:22:01;101080.03;;;11.42
24714;BMP280;12820;51.580;5.010;2023-04-24T23:27:03;101083.41;;;11.41
24714;BMP280;12820;51.580;5.010;2023-04-24T23:32:05;101084.19;;;11.43
24714;BMP280;12820;51.580;5.010;2023-04-24T23:37:07;101083.34;;;11.44
24714;BMP280;12820;51.580;5.010;2023-04-24T23:42:09;101089.22;;;11.45
24714;BMP280;12820;51.580;5.010;2023-04-24T23:47:11;101092.59;;;11.44
24714;BMP280;12820;51.580;5.010;2023-04-24T23:52:13;101090.13;;;11.41
24714;BMP280;12820;51.580;5.010;2023-04-24T23:57:16;101097.69;;;11.39
